Wetmore, Texas
Current Conditions -  °F | °C
As of 3:51 AM on Thursday 18 Dec 2014 (Local Time) from KSAT Reporting Station
Drizzle Drizzle  
Wind Chill: 57°   Ceiling: 200
Heat Index: 57°   Visibility: 0.25mi
Dew Point: 56°   Wind: 5mph
Humidity: 96%   Direction: 360°N
Pressure: 30.06"   Gusts: NA
Location:  29.5903°N, 98.4049°W
Report Text: KSAT 180951Z 36004KT 1/4SM R12R/6000VP6000FT -DZ FG VV002 14/13 A3006 RMK AO2 SLP167 P0000 T01390133
Loading
Personal Weather Stations






























Interactive Weather Map New forecast layout! Learn more

10-Day Weather Forecast

Advertisements
Track Severe Weather on mobile